• Join FlightAware (Why Join?)
  • Login
  • US Flag 
04:06PM EDT


 

Airport Tracker/Info


-or-


 

Live Flight TrackerFlight Track Log ✈ UPS35 ✈ 23-Jun-2013 ✈ YSSY / SYD - RKSI / ICN

Flight Track Log - Related Links

Times and Time Zones

All times are in EDT time to prevent confusion due to time zone crossing. See the UPS35 flight status page for this flight to view local times or setup timezone preferences in your user account.

Time Position Orientation Groundspeed Altitude Reporting Facility
EDT Latitude Longitude Course Direction KTS MPH feet Rate Location/Type
06:33AM -33.9310 151.1690 348° North 5 6  Level FlightAware
06:33AM -33.9300 151.1690 360° North 6 7  Level FlightAware
06:34AM -33.9300 151.1700 90° East 3 3  Level FlightAware
06:37AM -33.6607 150.9726 329° Northwest  Level FlightAware Approximate
06:38AM -33.5522 150.8935 329° Northwest  Level FlightAware Approximate
06:38AM -33.9300 151.1720 329° Northwest  Level FlightAware
06:39AM -33.9360 151.1730 172° South 115 132 60 Level FlightAware
06:39AM -33.9480 151.1760 168° South 161 185 100 2,400 Climbing FlightAware
06:40AM -33.9700 151.1750 182° South 165 190 1,800 3,000 Climbing FlightAware
06:40AM -33.9890 151.1720 187° South 167 192 2,900 1,620 Climbing FlightAware
06:40AM -34.0150 151.1670 189° South 215 247 3,300 1,620 Climbing FlightAware
06:41AM -34.0440 151.1630 187° South 243 280 4,400 3,000 Climbing FlightAware
06:41AM -34.0800 151.1580 187° South 263 303 6,100 3,480 Climbing FlightAware
06:41AM -34.0805 151.1581 187° South 259 298 6,400 3,600 Climbing Aus ATC (RADAR)
06:42AM -34.0920 151.1560 188° South 276 318 6,700 3,780 Climbing FlightAware
06:42AM -34.1300 151.1520 185° South 279 321 8,700 3,960 Climbing FlightAware
06:43AM -34.1690 151.1430 191° South 289 333 10,700 3,600 Climbing FlightAware
06:43AM -34.1820 151.1330 212° Southwest 287 330 11,400 3,120 Climbing FlightAware
06:43AM -34.1930 151.1190 226° Southwest 302 348 12,000 3,600 Climbing FlightAware
06:43AM -34.2010 151.0940 249° West 307 353 12,900 3,060 Climbing FlightAware
06:44AM -34.1910 151.0440 284° West 321 369 14,300 2,580 Climbing FlightAware
06:44AM -34.1740 151.0260 319° Northwest 324 373 14,800 1,980 Climbing FlightAware
06:45AM -34.1110 151.0040 344° North 362 417 16,100 2,040 Climbing FlightAware
06:45AM -34.0510 150.9810 342° North 395 455 17,500 2,880 Climbing FlightAware
06:46AM -33.9780 150.9480 339° North 398 458 20,000 3,000 Climbing FlightAware
06:47AM -33.9010 150.9130 339° North 415 478 21,800 2,160 Climbing FlightAware
06:47AM -33.8290 150.8810 340° North 432 497 23,100 1,800 Climbing FlightAware
06:48AM -33.7550 150.8480 340° North 451 519 24,300 2,400 Climbing FlightAware
06:48AM -33.7392 150.8409 340° North 431 496 24,800 2,520 Climbing Aus ATC (RADAR)
06:49AM -33.6710 150.8100 339° North 457 526 26,100 2,040 Climbing FlightAware
06:49AM -33.6090 150.7820 339° North 464 534 27,200 2,100 Climbing FlightAware
06:50AM -33.5322 150.7573 339° North 458 527 28,400 1,080 Climbing Aus ATC (RADAR)
06:50AM -33.5190 150.7540 339° North 452 520 28,000 -540 Descending FlightAware
06:51AM -33.4380 150.7280 345° North 454 522 28,000  Level FlightAware
06:51AM -33.3660 150.7080 347° North 456 525 28,000  Level FlightAware
06:52AM -33.2930 150.6860 346° North 458 527 28,000 360 Level FlightAware
06:52AM -33.2259 150.6658 346° North 458 527 28,400  Climbing Aus ATC (RADAR)
06:52AM -33.2090 150.6610 346° North 460 529 28,000 1,080 Descending FlightAware
06:53AM -33.1240 150.6360 346° North 457 526 29,300 2,580 Climbing FlightAware
06:54AM -33.0473 150.6129 346° North 441 507 31,300 2,460 Climbing Aus ATC (RADAR)
06:54AM -33.0380 150.6100 346° North 455 524 31,100 1,680 Descending FlightAware
06:55AM -32.9450 150.5820 346° North 448 516 32,800 2,040 Climbing FlightAware
06:55AM -32.8660 150.5590 346° North 445 512 34,000 1,380 Climbing FlightAware
06:56AM -32.7840 150.5350 346° North 450 518 34,700 600 Climbing FlightAware
06:57AM -32.6730 150.5030 346° North 445 512 35,000 180 Climbing FlightAware
06:58AM -32.5800 150.4750 346° North 448 516 35,000 480 Level FlightAware
06:58AM -32.5740 150.4739 346° North 439 505 35,400  Climbing Aus ATC (RADAR)
06:58AM -32.5100 150.4550 346° North 450 518 35,000 -360 Descending FlightAware
06:59AM -32.4450 150.4360 346° North 451 519 35,000 420 Level FlightAware
06:59AM -32.4222 150.4298 346° North 445 512 35,300  Climbing Aus ATC (RADAR)
07:00AM -32.3250 150.4010 346° North 445 512 35,000 -240 Descending FlightAware
07:00AM -32.2620 150.3830 346° North 446 513 35,000 240 Level FlightAware
07:01AM -32.1779 150.3589 346° North 446 513 35,300  Climbing Aus ATC (RADAR)
07:01AM -32.1690 150.3560 346° North 447 514 35,000 -420 Descending FlightAware
07:02AM -32.0870 150.3330 347° North 450 518 35,000  Level FlightAware
07:02AM -31.9950 150.3060 346° North 461 531 35,000 60 Level FlightAware
07:03AM -31.9020 150.2790 346° North 461 531 35,100 60 Climbing FlightAware
07:04AM -31.8170 150.2540 346° North 451 519 35,100 -120 Level FlightAware
07:04AM -31.7360 150.2310 346° North 448 516 35,000 -120 Descending FlightAware
07:05AM -31.6520 150.2070 346° North 447 514 35,000  Level FlightAware
07:06AM -31.5800 150.1860 346° North 447 514 35,000  Level FlightAware
07:06AM -31.4870 150.1600 347° North 445 512 35,000  Level FlightAware
07:07AM -31.4080 150.1370 346° North 451 519 35,000  Level FlightAware
07:08AM -31.3030 150.1080 347° North 450 518 35,000  Level FlightAware
07:09AM -31.2340 150.0880 346° North 448 516 35,000  Level FlightAware
07:09AM -31.1530 150.0650 346° North 447 514 35,000 240 Level FlightAware
07:10AM -31.0370 150.0320 346° North 449 517 35,500 900 Climbing FlightAware
07:11AM -30.9675 150.0129 346° North 449 517 36,400 600 Climbing Aus ATC (RADAR)
07:11AM -30.9360 150.0040 346° North 448 516 36,000 -480 Descending FlightAware
07:12AM -30.8560 149.9810 346° North 449 517 36,000  Level FlightAware
07:12AM -30.7860 149.9610 346° North 444 511 36,000  Level FlightAware
07:13AM -30.7020 149.9380 347° North 448 516 36,000  Level FlightAware
07:14AM -30.6020 149.9100 346° North 447 514 36,000  Level FlightAware
07:14AM -30.5610 149.8980 346° North 447 514 36,000  Level FlightAware
07:15AM -30.4790 149.8740 346° North 447 514 36,000 300 Level FlightAware
07:15AM -30.4210 149.8593 346° North 438 504 36,300  Climbing Aus ATC (RADAR)
07:16AM -30.4180 149.8560 346° North 447 514 36,000 -300 Descending FlightAware
07:16AM -30.3360 149.8330 346° North 447 514 36,000  Level FlightAware
07:17AM -30.2930 149.8200 345° North 447 514 36,000  Level FlightAware
07:18AM -30.2100 149.7960 346° North 447 514 36,000 180 Level FlightAware
07:18AM -30.0545 149.7741 346° North 449 517 36,300  Climbing Aus ATC (RADAR)
07:18AM -30.1480 149.7790 346° North 447 514 36,000 -360 Descending FlightAware
07:19AM -30.0650 149.7550 346° North 447 514 36,000  Level FlightAware
07:20AM -29.9810 149.7300 346° North 447 514 36,000  Level FlightAware
07:20AM -29.9400 149.7190 347° North 447 514 36,000  Level FlightAware
07:21AM -29.8790 149.7010 347° North 447 514 36,000 420 Level FlightAware
07:21AM -29.7113 149.7002 347° North 455 524 36,300  Climbing Aus ATC (RADAR)
07:22AM -29.7970 149.6780 346° North 447 514 36,000 -120 Descending FlightAware
07:22AM -29.5334 149.6622 346° North 454 522 36,200  Climbing Aus ATC (RADAR)
07:23AM -29.7150 149.6540 346° North 447 514 36,000 -300 Descending FlightAware
07:23AM -29.6540 149.6360 346° North 447 514 36,000 180 Level FlightAware
07:24AM -29.3140 149.6162 346° North 455 524 36,300 60 Climbing Aus ATC (RADAR)
07:27AM -28.9905 149.5484 350° North 455 524 36,300  Level Aus ATC (RADAR)
07:28AM -28.8134 149.5112 350° North 455 524 36,300  Level Aus ATC (RADAR)
07:30AM -28.5893 149.4658 350° North 451 519 36,300 -60 Level Aus ATC (RADAR)
07:32AM -28.2780 149.4001 349° North 447 514 36,200  Descending Aus ATC (RADAR)
07:34AM -28.1200 149.3503 344° North 438 504 36,300  Climbing Aus ATC (RADAR)
07:36AM -27.9138 149.2749 342° North 444 511 36,300 -60 Level Aus ATC (RADAR)
07:38AM -27.6150 149.1662 342° North 432 497 36,200  Descending Aus ATC (RADAR)
07:39AM -27.4716 149.1145 342° North 430 495 36,300  Climbing Aus ATC (RADAR)
07:41AM -27.2807 149.0453 342° North 432 497 36,300  Level Aus ATC (RADAR)
07:44AM -26.9544 148.9283 342° North 436 502 36,300  Level Aus ATC (RADAR)
07:45AM -26.7717 148.8635 342° North 435 501 36,300 -60 Level Aus ATC (RADAR)
07:47AM -26.5891 148.7986 342° North 434 499 36,200 -60 Descending Aus ATC (RADAR)
07:49AM -26.4129 148.7432 344° North 436 502 36,200  Level Aus ATC (RADAR)
07:50AM -26.2735 148.7033 346° North 446 513 36,200 60 Level Aus ATC (RADAR)
07:51AM -26.0907 148.6495 345° North 454 522 36,400  Climbing Aus ATC (RADAR)
07:52AM -25.9885 148.6199 345° North 456 525 36,300 -120 Descending Aus ATC (RADAR)
07:53AM -25.8974 148.5931 345° North 452 520 36,300 -120 Level Aus ATC (RADAR)
07:54AM -25.7963 148.5634 345° North 450 518 36,200 -120 Descending Aus ATC (RADAR)
07:54AM -25.7270 148.5429 345° North 444 511 36,200  Level Aus ATC (RADAR)
07:55AM -25.6291 148.5152 346° North 434 499 36,200  Level Aus ATC (RADAR)
07:56AM -25.5614 148.4958 346° North 431 496 36,200 -240 Level Aus ATC (RADAR)
07:56AM -25.5770 148.5000 345° North 437 503 36,000  Descending FlightAware
07:56AM -25.4725 148.4701 345° North 438 504 36,200  Climbing Aus ATC (RADAR)
07:57AM -25.4650 148.4670 345° North 437 503 36,000 -120 Descending FlightAware
07:58AM -25.3680 148.4400 346° North 447 514 36,100 60 Climbing FlightAware
07:58AM -25.2810 148.4150 345° North 448 516 36,100  Level FlightAware
07:59AM -25.1950 148.3900 345° North 447 514 36,100 -120 Level FlightAware
08:00AM -25.1280 148.3710 346° North 446 513 36,000 -120 Descending FlightAware
08:00AM -25.0590 148.3510 345° North 445 512 36,000  Level FlightAware
08:01AM -24.9790 148.3280 345° North 446 513 36,000 120 Level FlightAware
08:02AM -24.8224 148.2834 345° North 446 513 36,200  Climbing Aus ATC (RADAR)
08:02AM -24.8830 148.3010 345° North 448 516 36,000 -480 Descending FlightAware
08:02AM -24.8370 148.2870 345° North 449 517 36,000  Level FlightAware
08:03AM -24.7600 148.2650 345° North 452 520 36,000 480 Level FlightAware
08:03AM -24.6701 148.2404 345° North 452 520 36,400 120 Climbing Aus ATC (RADAR)
08:03AM -24.6600 148.2370 345° North 454 522 36,100 -180 Descending FlightAware
08:04AM -24.5987 148.2201 345° North 455 524 36,300  Climbing Aus ATC (RADAR)
08:04AM -24.5710 148.2110 345° North 455 524 36,100  Descending FlightAware
08:05AM -24.4457 148.1767 345° North 455 524 36,300  Climbing Aus ATC (RADAR)
08:05AM -24.4960 148.1900 345° North 456 525 36,100 -420 Descending FlightAware
08:06AM -24.4090 148.1660 346° North 454 522 36,000 60 Descending FlightAware
08:06AM -24.2832 148.1304 346° North 451 519 36,200  Climbing Aus ATC (RADAR)
08:06AM -24.3070 148.1370 346° North 452 520 36,000 -420 Descending FlightAware
08:07AM -24.2720 148.1270 345° North 453 521 36,000 180 Level FlightAware
08:07AM -24.1207 148.0847 345° North 453 521 36,200  Climbing Aus ATC (RADAR)
08:08AM -24.1810 148.1010 345° North 453 521 36,000 -420 Descending FlightAware
08:08AM -24.1080 148.0800 345° North 454 522 36,000  Level FlightAware
08:08AM -24.0630 148.0680 346° North 457 526 36,000 240 Level FlightAware
08:09AM -23.9053 148.0244 346° North 458 527 36,300 120 Climbing Aus ATC (RADAR)
08:09AM -23.9580 148.0380 346° North 457 526 36,100  Descending FlightAware
08:10AM -23.8336 148.0040 346° North 456 525 36,300  Climbing Aus ATC (RADAR)
08:10AM -23.8490 148.0080 346° North 458 527 36,100 -120 Descending FlightAware
08:11AM -23.7010 147.9669 346° North 453 521 36,200 -120 Climbing Aus ATC (RADAR)
08:11AM -23.6770 147.9590 346° North 454 522 36,000 -240 Descending FlightAware
08:12AM -23.5960 147.9370 346° North 451 519 36,000  Level FlightAware
08:12AM -23.5350 147.9200 346° North 449 517 36,000  Level FlightAware
08:13AM -23.4460 147.8950 346° North 449 517 36,000  Level FlightAware
08:14AM -23.3730 147.8740 345° North 449 517 36,000  Level FlightAware
08:14AM -23.2890 147.8510 346° North 449 517 36,000  Level FlightAware
08:15AM -23.1920 147.8240 346° North 451 519 36,000  Level FlightAware
08:16AM -23.1330 147.8070 345° North 453 521 36,000  Level FlightAware
08:16AM -23.0490 147.7840 345° North 455 524 36,000 360 Level FlightAware
08:16AM -23.0438 147.7837 345° North 454 522 36,300 180 Climbing Aus ATC (RADAR)
08:17AM -22.9830 147.7660 346° North 457 526 36,100 -180 Descending FlightAware
08:18AM -22.9380 147.7530 346° North 459 528 36,100 300 Level FlightAware
08:18AM -22.8688 147.7352 346° North 461 531 36,400  Climbing Aus ATC (RADAR)
08:18AM -22.8530 147.7300 346° North 461 531 36,100 -360 Descending FlightAware
08:19AM -22.7140 147.6910 345° North 455 524 36,000 -120 Descending FlightAware
08:20AM -22.6330 147.6680 345° North 452 520 36,000 120 Level FlightAware
08:20AM -22.5623 147.6480 345° North 452 520 36,200  Climbing Aus ATC (RADAR)
08:20AM -22.5490 147.6430 345° North 451 519 36,000 -300 Descending FlightAware
08:21AM -22.4680 147.6190 345° North 453 521 36,000 120 Level FlightAware
08:22AM -22.3905 147.5976 345° North 453 521 36,200  Climbing Aus ATC (RADAR)
08:22AM -22.3790 147.5920 345° North 455 524 36,000 -240 Descending FlightAware
08:22AM -22.2890 147.5660 345° North 457 526 36,000 60 Level FlightAware
08:23AM -22.2060 147.5410 344° North 459 528 36,100  Climbing FlightAware
08:24AM -22.1240 147.5170 345° North 460 529 36,000  Descending FlightAware
08:24AM -22.0590 147.4980 345° North 461 531 36,100 60 Climbing FlightAware
08:25AM -21.9840 147.4760 345° North 463 533 36,100 -120 Level FlightAware
08:26AM -21.8990 147.4510 345° North 462 532 36,000 120 Descending FlightAware
08:26AM -21.8877 147.4486 345° North 456 525 36,200  Climbing Aus ATC (RADAR)
08:26AM -21.8060 147.4230 344° North 463 533 36,000  Descending FlightAware
08:27AM -21.7220 147.3997 344° North 463 533 36,200  Climbing Aus ATC (RADAR)
08:27AM -21.7200 147.3980 344° North 463 533 36,000 -300 Descending FlightAware
08:28AM -21.6310 147.3720 344° North 462 532 36,000 240 Level FlightAware
08:28AM -21.6189 147.3694 344° North 457 526 36,200  Climbing Aus ATC (RADAR)
08:29AM -21.5390 147.3450 345° North 463 533 36,000 -180 Descending FlightAware
08:29AM -21.4510 147.3190 345° North 463 533 36,000  Level FlightAware
08:30AM -21.3650 147.2940 345° North 463 533 36,000  Level FlightAware
08:31AM -21.2810 147.2700 345° North 463 533 36,000 120 Level FlightAware
08:31AM -21.2149 147.2516 345° North 465 535 36,200  Climbing Aus ATC (RADAR)
08:31AM -21.2160 147.2510 345° North 463 533 36,000 -360 Descending FlightAware
08:32AM -21.1440 147.2300 345° North 465 535 36,000 240 Level FlightAware
08:32AM -21.1218 147.2243 345° North 458 527 36,200  Climbing Aus ATC (RADAR)
08:32AM -21.0530 147.2030 345° North 466 536 36,000  Descending FlightAware
08:33AM -20.9757 147.1820 345° North 466 536 36,200  Climbing Aus ATC (RADAR)
08:33AM -20.9700 147.1790 345° North 467 537 36,000 -300 Descending FlightAware
08:34AM -20.8910 147.1560 345° North 469 540 36,000 120 Level FlightAware
08:34AM -20.8081 147.1335 345° North 467 537 36,200  Climbing Aus ATC (RADAR)
08:35AM -20.7960 147.1280 345° North 469 540 36,000 -300 Descending FlightAware
08:35AM -20.7340 147.1090 344° North 469 540 36,000 120 Level FlightAware
08:36AM -20.6403 147.0847 344° North 469 540 36,200  Climbing Aus ATC (RADAR)
08:36AM -20.6490 147.0820 344° North 469 540 36,000 -300 Descending FlightAware
08:36AM -20.6060 147.0690 344° North 469 540 36,000  Level FlightAware
08:37AM -20.5000 147.0370 344° North 469 540 36,000  Level FlightAware
08:38AM -20.4570 147.0240 344° North 469 540 36,000  Level FlightAware
08:38AM -20.3920 147.0040 344° North 469 540 36,000 240 Level FlightAware
08:39AM -20.2818 146.9817 344° North 470 541 36,200 240 Climbing Aus ATC (RADAR)
08:39AM -20.2079 146.9607 344° North 471 542 36,200 -360 Level Aus ATC (RADAR)
08:39AM -20.3100 146.9790 344° North 469 540 36,000  Descending FlightAware
08:40AM -20.1341 146.9391 344° North 471 542 36,200  Climbing Aus ATC (RADAR)
08:40AM -20.2270 146.9530 344° North 469 540 36,000 -300 Descending FlightAware
08:41AM -20.1660 146.9350 345° North 469 540 36,000  Level FlightAware
08:41AM -20.0810 146.9090 344° North 469 540 36,000  Level FlightAware
08:42AM -20.0160 146.8890 344° North 469 540 36,000  Level FlightAware
08:42AM -19.9700 146.8750 344° North 469 540 36,000  Level FlightAware
08:43AM -19.9040 146.8550 344° North 469 540 36,000 300 Level FlightAware
08:43AM -19.7097 146.8174 344° North 479 551 36,200  Climbing Aus ATC (RADAR)
08:44AM -19.8140 146.8270 344° North 469 540 36,000 60 Descending FlightAware
08:44AM -19.5913 146.7838 344° North 485 558 36,300 300 Climbing Aus ATC (RADAR)
08:45AM -19.4946 146.7557 344° North 483 556 36,300 -60 Level Aus ATC (RADAR)
08:46AM -19.3558 146.7169 345° North 482 555 36,200 -120 Descending Aus ATC (RADAR)
08:46AM -19.2919 146.6977 344° North 483 556 36,200  Level Aus ATC (RADAR)
08:47AM -19.1645 146.6635 346° North 474 545 36,200  Level Aus ATC (RADAR)
08:48AM -19.0907 146.6406 344° North 467 537 36,200  Level Aus ATC (RADAR)
08:49AM -18.9729 146.6078 345° North 467 537 36,200 60 Level Aus ATC (RADAR)
08:49AM -18.8976 146.5870 345° North 460 529 36,300 60 Climbing Aus ATC (RADAR)
08:50AM -18.7679 146.5498 345° North 464 534 36,300 -60 Level Aus ATC (RADAR)
08:51AM -18.6725 146.5229 345° North 458 527 36,200 -120 Descending Aus ATC (RADAR)
08:52AM -18.5667 146.4935 345° North 455 524 36,200  Level Aus ATC (RADAR)
08:52AM -18.5041 146.4763 345° North 457 526 36,200  Level Aus ATC (RADAR)
08:53AM -18.4316 146.4550 344° North 453 521 36,200  Level Aus ATC (RADAR)
08:54AM -18.3577 146.4341 345° North 455 524 36,200  Level Aus ATC (RADAR)
08:54AM -18.2943 146.4162 345° North 460 529 36,200 -180 Level Aus ATC (RADAR)
08:54AM -18.2700 146.4090 345° North 471 542 36,100 -180 Descending FlightAware
08:55AM -18.2200 146.3950 345° North 472 543 36,100 60 Level FlightAware
08:55AM -18.1360 146.3716 345° North 460 529 36,200 -180 Climbing Aus ATC (RADAR)
08:55AM -18.1340 146.3710 345° North 474 545 36,000 -420 Descending FlightAware
08:56AM -18.0780 146.3550 345° North 475 547 36,000 60 Level FlightAware
08:56AM -18.0100 146.3360 345° North 475 547 36,100 60 Climbing FlightAware
08:57AM -18.0100 146.3360 345° North 472 543 36,100 -120 Level FlightAware
08:58AM -17.8570 146.2940 345° North 470 541 36,000 -120 Descending FlightAware
08:58AM -17.7800 146.2720 345° North 468 539 36,000 240 Level FlightAware
08:58AM -17.7551 146.2656 345° North 459 528 36,200 120 Climbing Aus ATC (RADAR)
08:59AM -17.6921 146.2481 345° North 463 533 36,100 -360 Descending Aus ATC (RADAR)
08:59AM -17.6800 146.2440 345° North 466 536 36,000 -180 Descending FlightAware
09:00AM -17.5970 146.2210 345° North 465 535 36,000  Level FlightAware
09:00AM -17.5120 146.1970 345° North 464 534 36,000  Level FlightAware
09:01AM -17.4270 146.1740 345° North 463 533 36,000 240 Level FlightAware
09:01AM -17.4221 146.1725 345° North 457 526 36,200  Climbing Aus ATC (RADAR)
09:02AM -17.3360 146.1480 345° North 463 533 36,000 -180 Descending FlightAware
09:02AM -17.2450 146.1230 345° North 463 533 36,000  Level FlightAware
09:03AM -17.1580 146.0990 345° North 463 533 36,000 240 Level FlightAware
09:03AM -17.1522 146.0979 345° North 457 526 36,200  Climbing Aus ATC (RADAR)
09:04AM -17.0870 146.0800 346° North 464 534 36,000  Descending FlightAware
09:04AM -17.0173 146.0605 346° North 454 522 36,200 60 Climbing Aus ATC (RADAR)
09:05AM -16.9720 146.0480 346° North 464 534 36,100 -120 Descending FlightAware
09:05AM -16.8890 146.0250 345° North 465 535 36,100  Level FlightAware
09:06AM -16.7940 145.9990 345° North 465 535 36,100  Level FlightAware
09:07AM -16.7090 145.9750 345° North 466 536 36,100 60 Level FlightAware
09:07AM -16.6215 145.9510 345° North 458 527 36,200 -120 Climbing Aus ATC (RADAR)
09:08AM -16.5820 145.9400 345° North 465 535 36,000 -240 Descending FlightAware
09:08AM -16.5040 145.9190 346° North 465 535 36,000  Level FlightAware
09:09AM -16.4300 145.8980 345° North 466 536 36,000  Level FlightAware
09:10AM -16.3520 145.8770 345° North 466 536 36,000 240 Level FlightAware
09:10AM -16.3293 145.8704 345° North 460 529 36,200  Climbing Aus ATC (RADAR)
09:10AM -16.2460 145.8480 345° North 466 536 36,000 -180 Descending FlightAware
09:11AM -16.1640 145.8260 346° North 466 536 36,000  Level FlightAware
09:12AM -16.0840 145.8040 346° North 466 536 36,000 240 Level FlightAware
09:12AM -16.0681 145.7980 346° North 459 528 36,200 180 Climbing Aus ATC (RADAR)
09:13AM -15.9429 145.7637 346° North 463 533 36,200 -120 Level Aus ATC (RADAR)
09:13AM -15.9460 145.7660 346° North 468 539 36,100 -180 Descending FlightAware
09:13AM -15.8720 145.7460 345° North 468 539 36,100 60 Level FlightAware
09:14AM -15.8060 145.7264 345° North 461 531 36,200  Climbing Aus ATC (RADAR)
09:14AM -15.7950 145.7240 345° North 468 539 36,100 -120 Descending FlightAware
09:15AM -15.7020 145.6990 345° North 468 539 36,100 1,500 Level FlightAware
09:15AM -15.6694 145.6899 345° North 465 535 37,500  Climbing Aus ATC (RADAR)
09:16AM -15.6170 145.6750 345° North 468 539 36,100 -840 Descending FlightAware
09:17AM -15.5100 145.6450 345° North 468 539 36,100  Level FlightAware
09:17AM -15.4430 145.6260 345° North 468 539 36,100 1,440 Level FlightAware
09:18AM -15.2682 145.5818 345° North 466 536 38,200  Climbing Aus ATC (RADAR)
09:18AM -15.3360 145.5970 345° North 468 539 36,100 -2,580 Descending FlightAware
09:19AM -15.2720 145.5790 345° North 468 539 36,100  Level FlightAware
09:20AM -15.1850 145.5550 345° North 468 539 36,100  Level FlightAware
09:20AM -15.1190 145.5360 344° North 468 539 36,100 1,260 Level FlightAware
09:21AM -14.8584 145.4710 344° North 467 537 38,200  Climbing Aus ATC (RADAR)
09:21AM -15.0130 145.5070 344° North 468 539 36,100 -3,420 Descending FlightAware
09:22AM -14.9490 145.4890 345° North 468 539 36,100  Level FlightAware
09:23AM -14.8630 145.4650 345° North 468 539 36,100  Level FlightAware
09:23AM -14.8010 145.4480 345° North 468 539 36,100 1,200 Level FlightAware
09:24AM -14.4698 145.3658 345° North 463 533 38,100 960 Climbing Aus ATC (RADAR)
09:25AM -14.3418 145.3334 346° North 474 545 38,200  Climbing Aus ATC (RADAR)
09:27AM -14.1767 145.3081 352° North 478 550 38,200  Level Aus ATC (RADAR)
09:28AM -14.0567 145.2885 351° North 472 543 38,200 -60 Level Aus ATC (RADAR)
09:29AM -13.9265 145.2695 352° North 468 539 38,100 -60 Descending Aus ATC (RADAR)
09:30AM -13.7546 145.2412 351° North 463 533 38,100  Level Aus ATC (RADAR)
09:31AM -13.6255 145.2206 351° North 464 534 38,200  Climbing Aus ATC (RADAR)
09:32AM -13.4965 145.1991 351° North 465 535 38,200  Level Aus ATC (RADAR)
09:33AM -13.3463 145.1746 351° North 464 534 38,200  Level Aus ATC (RADAR)
09:34AM -13.2171 145.1581 353° North 463 533 38,200  Level Aus ATC (RADAR)
09:35AM -13.0774 145.1357 351° North 463 533 38,200 -60 Level Aus ATC (RADAR)
09:36AM -12.9278 145.1068 349° North 462 532 38,100 -120 Descending Aus ATC (RADAR)
09:37AM -12.8002 145.0860 351° North 460 529 38,000 -60 Descending Aus ATC (RADAR)
09:38AM -12.6935 145.0715 352° North 459 528 38,000  Level Aus ATC (RADAR)
09:44AM -11.9633 144.9556 355° North 38,000  Level Aus ATC (Calculated)
09:46AM -12.1976 144.9901 172° South  Level FlightAware Approximate
09:46AM -11.5380 144.8884 356° North 38,000  Level Aus ATC (Calculated)
09:47AM -12.0732 144.9718 352° North  Level FlightAware Approximate
09:48AM -11.6643 144.9082 171° South  Level FlightAware Approximate
09:49AM -11.7886 144.9278 171° South  Level FlightAware Approximate
09:50AM -11.6694 144.8869 351° North  Level Estimated
09:51AM -11.5451 144.8680 352° North  Level FlightAware Approximate
09:52AM -11.4208 144.8490 352° North  Level FlightAware Approximate
09:53AM -11.2964 144.8301 352° North  Level FlightAware Approximate
09:54AM -11.1721 144.8112 352° North  Level FlightAware Approximate
09:55AM -11.0478 144.7923 352° North  Level FlightAware Approximate
09:56AM -10.9234 144.7734 352° North  Level FlightAware Approximate
09:57AM -10.7991 144.7545 352° North  Level FlightAware Approximate
09:58AM -10.6747 144.7357 352° North  Level FlightAware Approximate
09:59AM -10.5504 144.7168 352° North  Level FlightAware Approximate
10:00AM -10.4261 144.6980 352° North  Level FlightAware Approximate
10:01AM -10.3017 144.6792 352° North  Level FlightAware Approximate
10:02AM -10.1774 144.6604 352° North  Level FlightAware Approximate
10:03AM -10.0530 144.6417 352° North  Level FlightAware Approximate
10:04AM -9.9287 144.6229 352° North  Level FlightAware Approximate
10:04AM -9.2251 144.5264 357° North 38,000  Level Aus ATC (Calculated)
10:06AM -8.9890 144.4897 351° North  Level FlightAware Approximate
10:07AM -8.8647 144.4704 351° North  Level FlightAware Approximate
10:08AM -8.7405 144.4512 351° North  Level FlightAware Approximate
10:09AM -8.6162 144.4319 351° North  Level FlightAware Approximate
10:10AM -8.4919 144.4127 351° North  Level FlightAware Approximate
10:11AM -8.3677 144.3935 351° North  Level FlightAware Approximate
10:12AM -8.2434 144.3743 351° North  Level FlightAware Approximate
10:13AM -8.1192 144.3551 351° North  Level FlightAware Approximate
10:14AM -7.9949 144.3359 351° North  Level FlightAware Approximate
10:15AM -7.8706 144.3167 351° North  Level FlightAware Approximate
10:16AM -7.7463 144.2975 351° North  Level FlightAware Approximate
10:17AM -7.6221 144.2784 351° North  Level FlightAware Approximate
10:18AM -7.4978 144.2592 351° North  Level FlightAware Approximate
10:19AM -7.3735 144.2401 351° North  Level FlightAware Approximate
10:20AM -7.4978 144.2592 171° South  Level FlightAware Approximate
10:21AM -7.3735 144.2401 351° North  Level FlightAware Approximate
10:22AM -7.4978 144.2592 171° South  Level FlightAware Approximate
10:23AM -7.3735 144.2401 351° North  Level FlightAware Approximate
10:24AM -7.4978 144.2592 171° South  Level FlightAware Approximate
10:25AM -7.3735 144.2401 351° North  Level FlightAware Approximate
10:26AM -7.4978 144.2592 171° South  Level FlightAware Approximate
10:27AM -7.3750 144.2464 358° North  Level FlightAware Approximate
10:28AM -7.2494 144.2422 358° North  Level FlightAware Approximate
10:28AM -5.9174 144.1973 358° North 38,000  Level Aus ATC (Calculated)
10:30AM -5.7143 144.1905 358° North  Level FlightAware Approximate
10:31AM -5.5887 144.1863 358° North  Level FlightAware Approximate
10:32AM -5.4630 144.1821 358° North  Level FlightAware Approximate
10:33AM -5.3374 144.1779 358° North  Level FlightAware Approximate
10:34AM -5.2118 144.1736 358° North  Level FlightAware Approximate
10:35AM -5.0861 144.1694 358° North  Level FlightAware Approximate
10:36AM -4.9605 144.1652 358° North  Level FlightAware Approximate
10:37AM -4.8348 144.1610 358° North  Level FlightAware Approximate
10:38AM -4.7092 144.1568 358° North  Level FlightAware Approximate
10:39AM -4.5836 144.1526 358° North  Level FlightAware Approximate
10:40AM -4.4579 144.1484 358° North  Level FlightAware Approximate
10:41AM -4.3323 144.1442 358° North  Level FlightAware Approximate
10:42AM -4.2066 144.1400 358° North  Level FlightAware Approximate
10:43AM -4.0810 144.1358 358° North  Level FlightAware Approximate
10:44AM -3.9554 144.1316 358° North  Level FlightAware Approximate
10:45AM -3.8297 144.1274 358° North  Level FlightAware Approximate
10:46AM -3.7041 144.1232 358° North  Level FlightAware Approximate
10:47AM -3.5784 144.1190 358° North  Level FlightAware Approximate
10:48AM -3.4528 144.1149 358° North  Level FlightAware Approximate
10:49AM -3.3272 144.1107 358° North  Level FlightAware Approximate
10:50AM -3.2015 144.1065 358° North  Level FlightAware Approximate
10:51AM -3.0759 144.1023 358° North  Level FlightAware Approximate
10:52AM -2.9502 144.0981 358° North  Level FlightAware Approximate
10:53AM -2.8246 144.0939 358° North  Level FlightAware Approximate
10:54AM -2.6990 144.0897 358° North  Level FlightAware Approximate
10:55AM -2.5733 144.0856 358° North  Level FlightAware Approximate
10:56AM -2.4477 144.0814 358° North  Level FlightAware Approximate
10:57AM -2.3220 144.0772 358° North  Level FlightAware Approximate
10:58AM -2.1964 144.0730 358° North  Level FlightAware Approximate
10:59AM -2.0708 144.0688 358° North  Level FlightAware Approximate
11:00AM -1.9451 144.0647 358° North  Level FlightAware Approximate
11:01AM -1.8195 144.0605 358° North  Level FlightAware Approximate
11:02AM -1.6938 144.0563 358° North  Level FlightAware Approximate
11:03AM -1.5682 144.0521 358° North  Level FlightAware Approximate
11:04AM -1.4426 144.0479 358° North  Level FlightAware Approximate
11:05AM -1.3169 144.0438 358° North  Level FlightAware Approximate
11:06AM -1.1913 144.0396 358° North  Level FlightAware Approximate
11:07AM -1.0656 144.0354 358° North  Level FlightAware Approximate
11:08AM -0.9400 144.0312 358° North  Level FlightAware Approximate
11:09AM -0.8144 144.0271 358° North  Level FlightAware Approximate
11:10AM -0.6887 144.0229 358° North  Level FlightAware Approximate
11:11AM -0.5631 144.0187 358° North  Level FlightAware Approximate
11:12AM -0.4374 144.0145 358° North  Level FlightAware Approximate
11:13AM -0.3118 144.0104 358° North  Level FlightAware Approximate
11:14AM -0.1862 144.0062 358° North  Level FlightAware Approximate
11:15AM -0.0605 144.0020 358° North  Level FlightAware Approximate
11:16AM 0.0651 143.9978 358° North  Level FlightAware Approximate
11:16AM 0.0000 144.0000 356° North 457 526 38,000  Level Oakland Oceanic (ODAPS)
11:17AM -0.0605 144.0020 178° South  Level FlightAware Approximate
11:18AM 0.0651 143.9978 358° North  Level FlightAware Approximate
11:19AM -0.0605 144.0020 178° South  Level FlightAware Approximate
11:20AM 0.0651 143.9978 358° North  Level FlightAware Approximate
11:21AM -0.0605 144.0020 178° South  Level FlightAware Approximate
11:22AM 0.6410 143.9510 356° North 457 526 38,000  Level FlightAware Transoceanic
11:23AM 0.7692 143.9412 356° North 457 526 38,000  Level FlightAware Transoceanic
11:24AM 0.8974 143.9314 356° North 457 526 38,000  Level FlightAware Transoceanic
11:25AM 1.0257 143.9216 356° North 457 526 38,000  Level FlightAware Transoceanic
11:26AM 1.1538 143.9117 356° North 457 526 38,000  Level FlightAware Transoceanic
11:27AM 1.2821 143.9019 356° North 457 526 38,000  Level FlightAware Transoceanic
11:28AM 1.4103 143.8921 356° North 457 526 38,000  Level FlightAware Transoceanic
11:28AM 1.5000 143.8833 356° North 458 527 38,000  Level Oakland Oceanic (ODAPS)
11:29AM 1.5385 143.8823 356° North 457 526 38,000  Level FlightAware Transoceanic
11:30AM 1.6667 143.8725 356° North 457 526 38,000  Level FlightAware Transoceanic
11:31AM 1.7949 143.8627 356° North 457 526 38,000  Level FlightAware Transoceanic
11:32AM 1.9231 143.8529 356° North 457 526 38,000  Level FlightAware Transoceanic
11:33AM 2.0513 143.8431 356° North 457 526 38,000  Level FlightAware Transoceanic
11:34AM 2.2778 143.8242 356° North 458 527 38,000  Level FlightAware Transoceanic
11:35AM 2.4074 143.8144 356° North 458 527 38,000  Level FlightAware Transoceanic
11:36AM 2.5370 143.8045 356° North 458 527 38,000  Level FlightAware Transoceanic
11:37AM 2.6667 143.7946 356° North 458 527 38,000  Level FlightAware Transoceanic
11:38AM 2.7963 143.7848 356° North 458 527 38,000  Level FlightAware Transoceanic
11:39AM 2.9259 143.7749 356° North 458 527 38,000  Level FlightAware Transoceanic
11:40AM 3.0556 143.7650 356° North 458 527 38,000  Level FlightAware Transoceanic
11:41AM 3.1852 143.7552 356° North 458 527 38,000  Level FlightAware Transoceanic
11:42AM 3.3148 143.7453 356° North 458 527 38,000  Level FlightAware Transoceanic
11:42AM 3.3167 143.7500 355° North 462 532 38,000  Level Oakland Oceanic (ODAPS)
11:43AM 3.4444 143.7354 356° North 458 527 38,000  Level FlightAware Transoceanic
11:44AM 3.5741 143.7255 356° North 458 527 38,000  Level FlightAware Transoceanic
11:45AM 3.7037 143.7157 356° North 458 527 38,000  Level FlightAware Transoceanic
11:46AM 3.8333 143.7058 356° North 458 527 38,000  Level FlightAware Transoceanic
11:47AM 3.9630 143.6959 356° North 458 527 38,000  Level FlightAware Transoceanic
11:48AM 4.0936 143.6885 355° North 462 532 38,000  Level FlightAware Transoceanic
11:49AM 4.2231 143.6783 355° North 462 532 38,000  Level FlightAware Transoceanic
11:50AM 4.3526 143.6680 355° North 462 532 38,000  Level FlightAware Transoceanic
11:51AM 4.4820 143.6577 355° North 462 532 38,000  Level FlightAware Transoceanic
11:52AM 4.6115 143.6475 355° North 462 532 38,000  Level FlightAware Transoceanic
11:53AM 4.7410 143.6372 355° North 462 532 38,000  Level FlightAware Transoceanic
11:54AM 4.8705 143.6269 355° North 462 532 38,000  Level FlightAware Transoceanic
11:55AM 5.0000 143.6167 351° North 462 532 38,000  Level FlightAware Transoceanic
11:55AM 5.0000 143.6167 351° North 456 525 38,000  Level Oakland Oceanic (ODAPS)
11:56AM 5.1320 143.5957 351° North 462 532 38,000  Level FlightAware Transoceanic
11:56AM 5.1333 143.6000 351° North 455 524 38,000  Level Oakland Oceanic (ODAPS)
11:57AM 5.2640 143.5747 351° North 462 532 38,000  Level FlightAware Transoceanic
11:58AM 5.3960 143.5537 351° North 462 532 38,000  Level FlightAware Transoceanic
11:59AM 5.5280 143.5327 351° North 462 532 38,000  Level FlightAware Transoceanic
12:00PM 5.6600 143.5117 351° North 462 532 38,000  Level FlightAware Transoceanic
12:01PM 5.7514 143.4972 351° North 456 525 38,000  Level FlightAware Transoceanic
12:02PM 5.8834 143.4800 351° North 455 524 38,000  Level FlightAware Transoceanic
12:03PM 6.0084 143.4599 351° North 455 524 38,000  Level FlightAware Transoceanic
12:04PM 6.1334 143.4399 351° North 455 524 38,000  Level FlightAware Transoceanic
12:05PM 6.2585 143.4198 351° North 455 524 38,000  Level FlightAware Transoceanic
12:06PM 6.3835 143.3998 351° North 455 524 38,000  Level FlightAware Transoceanic
12:07PM 6.5085 143.3797 351° North 455 524 38,000  Level FlightAware Transoceanic
12:08PM 6.6335 143.3596 351° North 455 524 38,000  Level FlightAware Transoceanic
12:09PM 6.7585 143.3395 351° North 455 524 38,000  Level FlightAware Transoceanic
12:09PM 6.9333 143.3167 351° North 457 526 38,000  Level Oakland Oceanic (ODAPS)
12:10PM 6.8835 143.3194 351° North 455 524 38,000  Level FlightAware Transoceanic
12:11PM 7.0085 143.2993 351° North 455 524 38,000  Level FlightAware Transoceanic
12:12PM 7.1335 143.2792 351° North 455 524 38,000  Level FlightAware Transoceanic
12:13PM 7.2585 143.2591 351° North 455 524 38,000  Level FlightAware Transoceanic
12:14PM 7.3835 143.2389 351° North 455 524 38,000  Level FlightAware Transoceanic
12:15PM 7.5085 143.2188 351° North 455 524 38,000  Level FlightAware Transoceanic
12:16PM 7.7030 143.1913 351° North 457 526 38,000  Level FlightAware Transoceanic
12:17PM 7.8312 143.1703 351° North 457 526 38,000  Level FlightAware Transoceanic
12:18PM 7.9595 143.1494 351° North 457 526 38,000  Level FlightAware Transoceanic
12:19PM 8.0878 143.1284 351° North 457 526 38,000  Level FlightAware Transoceanic
12:20PM 8.2160 143.1074 351° North 457 526 38,000  Level FlightAware Transoceanic
12:21PM 8.3443 143.0864 351° North 457 526 38,000  Level FlightAware Transoceanic
12:22PM 8.4725 143.0654 351° North 457 526 38,000  Level FlightAware Transoceanic
12:23PM 8.6008 143.0444 351° North 457 526 38,000  Level FlightAware Transoceanic
12:23PM 8.7500 143.0167 351° North 456 525 38,000  Level Oakland Oceanic (ODAPS)
12:24PM 8.7291 143.0233 351° North 457 526 38,000  Level FlightAware Transoceanic
12:25PM 8.8573 143.0023 351° North 457 526 38,000  Level FlightAware Transoceanic
12:26PM 8.9856 142.9812 351° North 457 526 38,000  Level FlightAware Transoceanic
12:27PM 9.1138 142.9601 351° North 457 526 38,000  Level FlightAware Transoceanic
12:28PM 9.2421 142.9391 351° North 457 526 38,000  Level FlightAware Transoceanic
12:29PM 9.4300 142.9068 351° North 456 525 38,000  Level FlightAware Transoceanic
12:30PM 9.5433 142.8885 351° North 456 525 38,000  Level FlightAware Transoceanic
12:31PM 9.6567 142.8701 351° North 456 525 38,000  Level FlightAware Transoceanic
12:32PM 9.7700 142.8517 351° North 456 525 38,000  Level FlightAware Transoceanic
12:33PM 9.8833 142.8333 356° North 456 525 38,000  Level FlightAware Transoceanic
12:33PM 9.9667 142.8333 356° North 500 575 38,000  Level Guam Center
12:34PM 10.0148 142.8251 356° North 456 525 38,000  Level FlightAware Transoceanic
12:34PM 10.0833 142.8333 360° North 470 541 38,000  Level Guam Center
12:35PM 10.1463 142.8168 356° North 456 525 38,000  Level FlightAware Transoceanic
12:35PM 10.2167 142.8167 353° North 460 529 38,000  Level Guam Center
12:36PM 10.2778 142.8085 356° North 456 525 38,000  Level FlightAware Transoceanic
12:36PM 10.3500 142.8000 353° North 470 541 38,000  Level Guam Center
12:37PM 10.4093 142.8002 356° North 456 525 38,000  Level FlightAware Transoceanic
12:37PM 10.4667 142.7833 352° North 470 541 38,000  Level Guam Center
12:38PM 10.5407 142.7919 356° North 456 525 38,000  Level FlightAware Transoceanic
12:38PM 10.6000 142.7667 353° North 470 541 38,000  Level Guam Center
12:39PM 10.7333 142.7500 353° North 480 552 38,000  Level Guam Center
12:40PM 10.8667 142.7333 353° North 470 541 38,000  Level Guam Center
12:41PM 11.0000 142.7000 346° North 470 541 38,000  Level Guam Center
12:42PM 11.1333 142.6833 353° North 460 529 38,000  Level Guam Center
12:43PM 11.2500 142.6667 352° North 460 529 38,000  Level Guam Center
12:44PM 11.3833 142.6500 353° North 470 541 38,000  Level Guam Center
12:45PM 11.5167 142.6333 353° North 470 541 38,000  Level Guam Center
12:46PM 11.6500 142.6167 353° North 460 529 38,000  Level Guam Center
12:47PM 11.7667 142.6000 352° North 460 529 38,000  Level Guam Center
12:48PM 11.9000 142.5833 353° North 470 541 38,000  Level Guam Center
12:49PM 12.0333 142.5667 353° North 470 541 38,000  Level Guam Center
12:50PM 12.1667 142.5500 353° North 470 541 38,000  Level Guam Center
12:51PM 12.3000 142.5333 353° North 470 541 38,000  Level Guam Center
12:52PM 12.4167 142.5167 352° North 460 529 38,000  Level Guam Center
12:53PM 12.5500 142.5000 353° North 470 541 38,000  Level Guam Center
12:54PM 12.6833 142.4667 346° North 470 541 38,000  Level Guam Center
12:55PM 12.8167 142.4500 353° North 470 541 38,000  Level Guam Center
12:56PM 12.9500 142.4333 353° North 480 552 38,000  Level Guam Center
12:57PM 13.0833 142.4167 353° North 480 552 38,000  Level Guam Center
12:58PM 13.2000 142.4000 352° North 470 541 38,000  Level Guam Center
12:59PM 13.3333 142.3833 353° North 460 529 38,000  Level Guam Center
01:00PM 13.4667 142.3667 353° North 460 529 38,000  Level Guam Center
01:01PM 13.5833 142.3500 352° North 460 529 38,000  Level Guam Center
01:02PM 13.7167 142.3333 353° North 480 552 38,000  Level Guam Center
01:03PM 13.8500 142.3167 353° North 470 541 38,000  Level Guam Center
01:04PM 13.9833 142.3000 353° North 460 529 38,000  Level Guam Center
01:05PM 14.1000 142.2833 352° North 460 529 38,000  Level Guam Center
01:06PM 14.2333 142.2667 353° North 470 541 38,000  Level Guam Center
01:07PM 14.3667 142.2333 346° North 460 529 38,000  Level Guam Center
01:08PM 14.4833 142.2167 352° North 460 529 38,000  Level Guam Center
01:09PM 14.6167 142.2000 353° North 460 529 38,000  Level Guam Center
01:10PM 14.7333 142.1833 352° North 450 518 38,000  Level Guam Center
01:11PM 14.8667 142.1667 353° North 450 518 38,000  Level Guam Center
01:12PM 15.0000 142.1500 353° North 460 529 38,000  Level Guam Center
01:13PM 15.1167 142.1333 352° North 450 518 38,000  Level Guam Center
01:14PM 15.2333 142.1167 352° North 450 518 38,000  Level Guam Center
01:15PM 15.3667 142.1000 353° North 460 529 38,000  Level Guam Center
01:16PM 15.5000 142.0833 353° North 460 529 38,000  Level Guam Center
01:17PM 15.6167 142.0667 352° North 460 529 38,000  Level Guam Center
01:18PM 15.7500 142.0500 353° North 460 529 38,000  Level Guam Center
01:19PM 15.8667 142.0333 352° North 450 518 38,000  Level Guam Center
01:20PM 16.0000 142.0167 353° North 460 529 38,000  Level Guam Center
01:21PM 16.1333 142.0000 353° North 460 529 38,000  Level Guam Center
01:22PM 16.2500 141.9833 352° North 460 529 38,000  Level Guam Center
01:23PM 16.3833 141.9500 347° North 450 518 38,000  Level Guam Center
01:24PM 16.5000 141.9333 352° North 460 529 38,000  Level Guam Center
01:24PM 16.5833 141.9500 319° Northwest 457 526 38,000  Level Oakland Oceanic (ODAPS)
01:32PM 17.2611 141.3346 319° Northwest 457 526 38,000  Level FlightAware Transoceanic
01:33PM 17.3578 141.2463 319° Northwest 457 526 38,000  Level FlightAware Transoceanic
01:33PM 17.4000 141.2167 319° Northwest 458 527 38,000  Level Oakland Oceanic (ODAPS)
01:34PM 17.4544 141.1579 319° Northwest 457 526 38,000  Level FlightAware Transoceanic
01:35PM 17.5510 141.0694 319° Northwest 457 526 38,000  Level FlightAware Transoceanic
01:36PM 17.6476 140.9809 319° Northwest 457 526 38,000  Level FlightAware Transoceanic
01:37PM 17.7441 140.8922 319° Northwest 457 526 38,000  Level FlightAware Transoceanic
01:38PM 17.8405 140.8034 319° Northwest 457 526 38,000  Level FlightAware Transoceanic
01:39PM 17.9725 140.6895 319° Northwest 458 527 38,000  Level FlightAware Transoceanic
01:40PM 18.0678 140.6013 319° Northwest 458 527 38,000  Level FlightAware Transoceanic
01:41PM 18.1630 140.5130 319° Northwest 458 527 38,000  Level FlightAware Transoceanic
01:42PM 18.2582 140.4246 319° Northwest 458 527 38,000  Level FlightAware Transoceanic
01:43PM 18.3533 140.3361 319° Northwest 458 527 38,000  Level FlightAware Transoceanic
01:44PM 18.4484 140.2475 319° Northwest 458 527 38,000  Level FlightAware Transoceanic
01:45PM 18.5435 140.1588 318° Northwest 458 527 38,000  Level FlightAware Transoceanic
01:46PM 18.6385 140.0701 318° Northwest 458 527 38,000 1,020 Level FlightAware Transoceanic
01:46PM 18.7500 139.9500 319° Northwest 474 545 40,000  Climbing Oakland Oceanic (ODAPS)
01:47PM 18.7335 139.9812 318° Northwest 458 527 38,000 -1,920 Descending FlightAware Transoceanic
01:48PM 18.8285 139.8922 318° Northwest 458 527 38,000  Level FlightAware Transoceanic
01:49PM 18.9234 139.8031 318° Northwest 458 527 38,000  Level FlightAware Transoceanic
01:50PM 19.0182 139.7139 318° Northwest 458 527 38,000  Level FlightAware Transoceanic
01:51PM 19.1131 139.6247 318° Northwest 458 527 38,000  Level FlightAware Transoceanic
01:52PM 19.2078 139.5353 318° Northwest 458 527 38,000 960 Level FlightAware Transoceanic
01:53PM 19.3394 139.3992 318° Northwest 474 545 40,000 960 Climbing FlightAware Transoceanic
01:54PM 19.4374 139.3071 318° Northwest 474 545 40,000  Level FlightAware Transoceanic
01:55PM 19.5355 139.2148 318° Northwest 474 545 40,000  Level FlightAware Transoceanic
01:56PM 19.6334 139.1224 318° Northwest 474 545 40,000  Level FlightAware Transoceanic
01:57PM 19.7314 139.0299 318° Northwest 474 545 40,000  Level FlightAware Transoceanic
01:58PM 19.8293 138.9373 318° Northwest 474 545 40,000  Level FlightAware Transoceanic
01:59PM 19.9271 138.8445 318° Northwest 474 545 40,000  Level FlightAware Transoceanic
02:00PM 20.0249 138.7517 318° Northwest 474 545 40,000  Level FlightAware Transoceanic
02:00PM 20.1167 138.6833 318° Northwest 474 545 40,000  Level Oakland Oceanic (ODAPS)
02:01PM 20.1226 138.6587 318° Northwest 474 545 40,000  Level FlightAware Transoceanic
02:02PM 20.2203 138.5656 318° Northwest 474 545 40,000  Level FlightAware Transoceanic
02:03PM 20.3179 138.4724 318° Northwest 474 545 40,000  Level FlightAware Transoceanic
02:04PM 20.4155 138.3791 318° Northwest 474 545 40,000  Level FlightAware Transoceanic
02:05PM 20.5131 138.2857 318° Northwest 474 545 40,000  Level FlightAware Transoceanic
02:06PM 20.6105 138.1921 318° Northwest 474 545 40,000  Level FlightAware Transoceanic
02:07PM 20.7060 138.1067 317° Northwest 474 545 40,000  Level FlightAware Transoceanic
02:08PM 20.8041 138.0101 317° Northwest 474 545 40,000  Level FlightAware Transoceanic
02:09PM 20.9021 137.9135 317° Northwest 474 545 40,000  Level FlightAware Transoceanic
02:10PM 21.0000 137.8167 330° Northwest 474 545 40,000  Level FlightAware Transoceanic
02:11PM 21.1160 137.7463 330° Northwest 474 545 40,000  Level FlightAware Transoceanic
02:12PM 21.2320 137.6758 330° Northwest 474 545 40,000  Level FlightAware Transoceanic
02:13PM 21.3479 137.6053 330° Northwest 474 545 40,000  Level FlightAware Transoceanic
02:14PM 21.4638 137.5346 330° Northwest 474 545 40,000  Level FlightAware Transoceanic
02:15PM 21.5797 137.4638 330° Northwest 474 545 40,000  Level FlightAware Transoceanic
02:16PM 21.6955 137.3928 330° Northwest 474 545 40,000  Level FlightAware Transoceanic
02:17PM 21.8113 137.3218 330° Northwest 474 545 40,000  Level FlightAware Transoceanic
02:18PM 21.9271 137.2507 330° Northwest 474 545 40,000  Level FlightAware Transoceanic
02:19PM 22.0429 137.1794 330° Northwest 474 545 40,000  Level FlightAware Transoceanic
02:20PM 22.1586 137.1080 330° Northwest 474 545 40,000  Level FlightAware Transoceanic
02:21PM 22.2743 137.0365 330° Northwest 474 545 40,000  Level FlightAware Transoceanic
02:22PM 22.3899 136.9649 330° Northwest 474 545 40,000  Level FlightAware Transoceanic
02:23PM 22.5056 136.8932 330° Northwest 474 545 40,000  Level FlightAware Transoceanic
02:24PM 22.6211 136.8213 330° Northwest 474 545 40,000  Level FlightAware Transoceanic
02:25PM 22.7367 136.7493 330° Northwest 474 545 40,000  Level FlightAware Transoceanic
02:26PM 22.8522 136.6772 330° Northwest 474 545 40,000  Level FlightAware Transoceanic
02:27PM 22.9678 136.6050 330° Northwest 474 545 40,000  Level FlightAware Transoceanic
02:28PM 23.0832 136.5327 330° Northwest 474 545 40,000  Level FlightAware Transoceanic
02:29PM 23.1987 136.4602 330° Northwest 474 545 40,000  Level FlightAware Transoceanic
02:30PM 23.3141 136.3876 330° Northwest 474 545 40,000  Level FlightAware Transoceanic
02:31PM 23.4294 136.3149 330° Northwest 474 545 40,000  Level FlightAware Transoceanic
02:32PM 23.5448 136.2420 330° Northwest 474 545 40,000  Level FlightAware Transoceanic
02:33PM 23.6600 136.1691 330° Northwest 474 545 40,000  Level FlightAware Transoceanic
02:34PM 23.7753 136.0960 330° Northwest 474 545 40,000  Level FlightAware Transoceanic
02:35PM 23.8905 136.0227 330° Northwest 474 545 40,000  Level FlightAware Transoceanic
02:36PM 24.0057 135.9494 330° Northwest 474 545 40,000  Level FlightAware Transoceanic
02:37PM 24.1209 135.8759 330° Northwest 474 545 40,000  Level FlightAware Transoceanic
02:38PM 24.2360 135.8022 330° Northwest 474 545 40,000  Level FlightAware Transoceanic
02:39PM 24.3511 135.7285 330° Northwest 474 545 40,000  Level FlightAware Transoceanic
02:40PM 24.4662 135.6546 330° Northwest 474 545 40,000  Level FlightAware Transoceanic
02:41PM 24.5812 135.5806 330° Northwest 474 545 40,000  Level FlightAware Transoceanic
02:42PM 24.6962 135.5064 330° Northwest 474 545 40,000  Level FlightAware Transoceanic
02:43PM 24.8111 135.4321 330° Northwest 474 545 40,000  Level FlightAware Transoceanic
02:44PM 24.9260 135.3576 330° Northwest 474 545 40,000  Level FlightAware Transoceanic
02:45PM 25.0409 135.2831 330° Northwest 474 545 40,000  Level FlightAware Transoceanic
02:46PM 25.1557 135.2083 329° Northwest 474 545 40,000  Level FlightAware Transoceanic
02:47PM 25.2705 135.1335 329° Northwest 474 545 40,000  Level FlightAware Transoceanic
02:48PM 25.3853 135.0585 329° Northwest 474 545 40,000  Level FlightAware Transoceanic
02:49PM 25.4886 134.9793 325° Northwest  Level FlightAware Approximate
02:50PM 25.3853 135.0585 145° Southeast  Level FlightAware Approximate
02:51PM 25.4951 134.9907 329° Northwest  Level Estimated
02:52PM 25.6024 134.9182 329° Northwest  Level FlightAware Approximate
02:53PM 25.7097 134.8455 329° Northwest  Level FlightAware Approximate
02:54PM 25.8169 134.7727 329° Northwest  Level FlightAware Approximate
02:55PM 25.9241 134.6998 329° Northwest  Level FlightAware Approximate
02:56PM 26.0313 134.6268 329° Northwest  Level FlightAware Approximate
02:57PM 26.1409 134.5584 329° Northwest  Level Estimated
02:58PM 26.2483 134.4855 329° Northwest  Level FlightAware Approximate
02:59PM 26.3555 134.4124 329° Northwest  Level FlightAware Approximate
03:00PM 26.4628 134.3393 329° Northwest  Level FlightAware Approximate
03:01PM 26.5700 134.2659 329° Northwest  Level FlightAware Approximate
03:02PM 26.6772 134.1925 329° Northwest  Level FlightAware Approximate
03:03PM 26.7843 134.1189 328° Northwest  Level FlightAware Approximate
03:04PM 26.8914 134.0451 328° Northwest  Level FlightAware Approximate
03:05PM 26.9984 133.9713 328° Northwest  Level FlightAware Approximate
03:06PM 27.1054 133.8972 328° Northwest  Level FlightAware Approximate
03:07PM 27.2124 133.8231 328° Northwest  Level FlightAware Approximate
03:08PM 27.3193 133.7488 328° Northwest  Level FlightAware Approximate
03:09PM 27.4263 133.6743 328° Northwest  Level FlightAware Approximate
03:10PM 27.5331 133.5997 328° Northwest  Level FlightAware Approximate
03:11PM 27.6399 133.5250 328° Northwest  Level FlightAware Approximate
03:12PM 27.7467 133.4501 328° Northwest  Level FlightAware Approximate
03:13PM 27.8535 133.3751 328° Northwest  Level FlightAware Approximate
03:14PM 27.9601 133.2999 328° Northwest  Level FlightAware Approximate
03:15PM 28.0668 133.2246 328° Northwest  Level FlightAware Approximate
03:16PM 28.1734 133.1491 328° Northwest  Level FlightAware Approximate
03:17PM 28.2800 133.0735 328° Northwest  Level FlightAware Approximate
03:18PM 28.3894 133.0033 328° Northwest  Level Estimated
03:19PM 28.4959 132.9274 328° Northwest  Level FlightAware Approximate
03:20PM 28.6023 132.8513 328° Northwest  Level FlightAware Approximate
03:21PM 28.7087 132.7750 328° Northwest  Level FlightAware Approximate
03:22PM 28.8151 132.6986 328° Northwest  Level FlightAware Approximate
03:23PM 28.9214 132.6221 328° Northwest  Level FlightAware Approximate
03:24PM 29.0277 132.5453 328° Northwest  Level FlightAware Approximate
03:25PM 29.1339 132.4685 328° Northwest  Level FlightAware Approximate
03:26PM 29.2401 132.3914 328° Northwest  Level FlightAware Approximate
03:27PM 29.3462 132.3142 328° Northwest  Level FlightAware Approximate
03:28PM 29.4523 132.2369 328° Northwest  Level FlightAware Approximate
03:29PM 29.5617 132.1657 327° Northwest  Level Estimated
03:30PM 29.6670 132.0867 327° Northwest  Level FlightAware Approximate
03:31PM 29.7722 132.0075 327° Northwest  Level FlightAware Approximate
03:32PM 29.8773 131.9281 327° Northwest  Level FlightAware Approximate
03:33PM 29.9824 131.8486 327° Northwest  Level FlightAware Approximate
03:34PM 30.0875 131.7689 327° Northwest  Level FlightAware Approximate
03:35PM 30.1969 131.6974 327° Northwest  Level Estimated
03:36PM 30.3025 131.6185 327° Northwest  Level FlightAware Approximate
03:37PM 30.4080 131.5394 327° Northwest  Level FlightAware Approximate
03:38PM 30.5135 131.4601 327° Northwest  Level FlightAware Approximate
03:39PM 30.6189 131.3806 327° Northwest  Level FlightAware Approximate
03:40PM 30.7243 131.3010 327° Northwest  Level FlightAware Approximate
03:41PM 30.8297 131.2212 327° Northwest  Level FlightAware Approximate
03:41PM 30.9080 130.8790 327° Northwest 443 510 40,000  Level FlightAware
03:42PM 30.9350 131.1413 327° Northwest  Level FlightAware Approximate
03:42PM 30.9930 130.8470 342° North 442 509 40,000  Level FlightAware
03:42PM 31.0670 130.8200 343° North 439 505 40,000  Level FlightAware
03:43PM 31.1450 130.7910 342° North 438 504 40,000  Level FlightAware
03:44PM 31.2320 130.7580 342° North 441 507 40,000  Level FlightAware
03:44PM 31.3200 130.7250 342° North 444 511 40,000 60 Level FlightAware
03:45PM 31.3990 130.6960 343° North 446 513 40,100 60 Climbing FlightAware
03:46PM 31.4870 130.6620 342° North 447 514 40,100  Level FlightAware
03:46PM 31.5560 130.6360 342° North 445 512 40,100 -120 Level FlightAware
03:47PM 31.6450 130.6030 342° North 442 509 40,000 -120 Descending FlightAware
03:48PM 31.7300 130.5710 342° North 439 505 40,000  Level FlightAware
03:48PM 31.7990 130.5440 342° North 437 503 40,000  Level FlightAware
03:49PM 31.8940 130.5070 342° North 435 501 40,000  Level FlightAware
03:50PM 31.9740 130.4760 342° North 437 503 40,000 60 Level FlightAware
03:51PM 32.0570 130.4440 342° North 435 501 40,100  Climbing FlightAware
03:51PM 32.1330 130.4140 342° North 434 499 40,000 -120 Descending FlightAware
03:52PM 32.2110 130.3840 342° North 436 502 40,000  Level FlightAware
03:53PM 32.2820 130.3560 342° North 438 504 40,000  Level FlightAware
03:53PM 32.3740 130.3200 342° North 443 510 40,000 60 Level FlightAware
03:54PM 32.4800 130.2790 342° North 444 511 40,100 60 Climbing FlightAware
03:55PM 32.5530 130.2500 341° North 441 507 40,100 -120 Level FlightAware
03:56PM 32.6410 130.2150 341° North 442 509 40,000 -120 Descending FlightAware
03:56PM 32.7250 130.1830 342° North 444 511 40,000  Level FlightAware
03:57PM 32.8010 130.1530 342° North 451 519 40,000 60 Level FlightAware
03:58PM 32.8850 130.1200 342° North 450 518 40,100  Climbing FlightAware
03:59PM 32.9580 130.0910 342° North 447 514 40,000 -120 Descending FlightAware
03:59PM 33.0310 130.0620 342° North 448 516 40,000  Level FlightAware
04:00PM 33.1230 130.0260 342° North 448 516 40,000  Level FlightAware
04:01PM 33.2360 129.9810 342° North 447 514 40,000  Level FlightAware
04:02PM 33.3690 129.9280 342° North 444 511 40,000  Level FlightAware
04:03PM 33.4460 129.8970 341° North 444 511 40,000  Level FlightAware
04:04PM 33.5560 129.8540 342° North 444 511 40,000  Level FlightAware
04:05PM 33.6700 129.8080 341° North 443 510 40,000  Level FlightAware
04:05PM 33.7450 129.7780 342° North 442 509 40,000  Level FlightAware
04:06PM 33.8400 129.7260 336° Northwest 435 501 40,000  Level FlightAware
04:07PM 33.9130 129.6850 335° Northwest 435 501 40,000  Level FlightAware
04:07PM 33.9920 129.6420 336° Northwest 434 499 40,000  Level FlightAware
04:08PM 34.0560 129.6070 336° Northwest 434 499 40,000  Level FlightAware
04:09PM 34.1470 129.5570 336° Northwest 426 490 40,000  Level FlightAware
04:09PM 34.2060 129.5230 335° Northwest 433 498 40,000  Level FlightAware
04:10PM 34.2880 129.4770 335° Northwest 434 499 40,000  Level FlightAware
04:11PM 34.4090 129.4100 335° Northwest 435 501 40,000 60 Level FlightAware
04:12PM 34.4860 129.3670 335° Northwest 436 502 40,100 60 Climbing FlightAware
04:13PM 34.5590 129.3260 335° Northwest 434 499 40,100  Level FlightAware
04:13PM 34.6360 129.2830 335° Northwest 432 497 40,100 -120 Level FlightAware
04:14PM 34.7030 129.2450 335° Northwest 431 496 40,000 -120 Descending FlightAware
04:15PM 34.7800 129.2010 335° Northwest 429 494 40,000  Level FlightAware
04:15PM 34.8550 129.1570 334° Northwest 429 494 40,000  Level FlightAware
04:16PM 34.9340 129.1110 334° Northwest 428 493 40,000  Level FlightAware
04:17PM 34.9950 129.0740 334° Northwest 432 497 40,000 60 Level FlightAware
04:17PM 35.0770 129.0270 335° Northwest 435 501 40,100 60 Climbing FlightAware
04:18PM 35.1600 128.9780 334° Northwest 436 502 40,100  Level FlightAware
04:19PM 35.2350 128.9330 334° Northwest 434 499 40,100 -120 Level FlightAware
04:20PM 35.3100 128.8890 334° Northwest 429 494 40,000 -120 Descending FlightAware
04:20PM 35.3590 128.8600 334° Northwest 428 493 40,000  Level FlightAware
04:21PM 35.4380 128.8140 335° Northwest 424 488 40,000  Level FlightAware
04:21PM 35.5130 128.7680 333° Northwest 424 488 40,000  Level FlightAware
04:22PM 35.5850 128.7260 335° Northwest 426 490 40,000  Level FlightAware
04:24PM 35.6690 128.6760 334° Northwest 426 490 40,000  Level FlightAware
04:25PM 35.7620 128.6200 334° Northwest 426 490 40,000  Level FlightAware
04:26PM 35.8160 128.5870 334° Northwest 426 490 40,000  Level FlightAware
04:26PM 35.8840 128.5460 334° Northwest 426 490 40,000  Level FlightAware
04:27PM 35.9230 128.5230 334° Northwest 426 490 40,000  Level FlightAware
04:27PM 35.9790 128.4890 334° Northwest 426 490 40,000  Level FlightAware
04:28PM 36.0510 128.4460 334° Northwest 426 490 40,000  Level FlightAware
04:29PM 36.1050 128.4130 334° Northwest 426 490 40,000  Level FlightAware
04:30PM 36.1760 128.3700 334° Northwest 426 490 40,000  Level FlightAware
04:30PM 36.2330 128.3360 334° Northwest 426 490 40,000  Level FlightAware
04:31PM 36.3040 128.2930 334° Northwest 426 490 40,000  Level FlightAware
04:32PM 36.3730 128.2510 334° Northwest 426 490 40,000  Level FlightAware
04:32PM 36.4280 128.2180 334° Northwest 426 490 40,000  Level FlightAware
04:33PM 36.5000 128.1740 334° Northwest 426 490 40,000  Level FlightAware
04:36PM 36.6080 127.9862 306° West  Level Estimated
04:37PM 36.6549 127.9044 306° West  Level Estimated
04:38PM 36.7017 127.8224 305° West  Level Estimated
04:39PM 36.7485 127.7404 305° West  Level Estimated
04:40PM 36.7952 127.6583 305° West  Level Estimated
04:41PM 36.8418 127.5761 305° West  Level Estimated
04:42PM 36.8884 127.4937 305° West  Level Estimated
04:43PM 36.9350 127.4113 305° West  Level Estimated
04:44PM 36.9814 127.3288 305° West  Level Estimated
04:45PM 37.0279 127.2461 305° West  Level Estimated
04:46PM 37.0742 127.1634 305° West  Level Estimated
04:47PM 37.1205 127.0806 305° West  Level Estimated
04:48PM 37.1668 126.9977 305° West  Level Estimated
04:49PM 37.2130 126.9146 305° West  Level Estimated
04:50PM 37.2591 126.8315 305° West  Level Estimated
04:51PM 37.3052 126.7483 305° West  Level Estimated
04:52PM 37.3512 126.6649 305° West  Level Estimated
04:53PM 37.3972 126.5815 305° West  Level Estimated
04:54PM 37.4431 126.4979 305° West  Level Estimated
04:55PM 37.4691 126.4505 305° West  Level Estimated
04:56PM 37.4691 126.4505 205° Southwest  Level Estimated
04:57PM 37.4691 126.4505 335° Northwest  Level Estimated
04:58PM 37.4691 126.4505 335° Northwest  Level Estimated
04:59PM 37.4691 126.4505 335° Northwest  Level Estimated
05:00PM 37.4691 126.4505 335° Northwest  Level Estimated
05:01PM 37.4691 126.4505 335° Northwest  Level Estimated
05:02PM 37.4691 126.4505 335° Northwest  Level Estimated
05:03PM 37.4691 126.4505 335° Northwest  Level Estimated
05:04PM 37.4691 126.4505 335° Northwest  Level Estimated
05:05PM 37.4691 126.4505 335° Northwest  Level Estimated